sensor_id;sensor_type;location;lat;lon;timestamp;P1;durP1;ratioP1;P2;durP2;ratioP2
2850;SDS011;1433;49.976;8.342;2023-02-21T00:00:50;11.60;;;8.00;;
2850;SDS011;1433;49.976;8.342;2023-02-21T00:03:35;10.70;;;8.13;;
2850;SDS011;1433;49.976;8.342;2023-02-21T00:06:26;8.57;;;6.80;;
2850;SDS011;1433;49.976;8.342;2023-02-21T00:09:11;9.53;;;7.47;;
2850;SDS011;1433;49.976;8.342;2023-02-21T00:11:56;17.23;;;8.97;;
2850;SDS011;1433;49.976;8.342;2023-02-21T00:14:47;10.87;;;9.00;;
2850;SDS011;1433;49.976;8.342;2023-02-21T00:17:32;12.20;;;8.50;;
2850;SDS011;1433;49.976;8.342;2023-02-21T00:20:17;12.47;;;9.50;;
2850;SDS011;1433;49.976;8.342;2023-02-21T00:23:02;14.50;;;9.17;;
2850;SDS011;1433;49.976;8.342;2023-02-21T00:25:46;11.40;;;8.10;;
2850;SDS011;1433;49.976;8.342;2023-02-21T00:28:32;7.30;;;6.70;;
2850;SDS011;1433;49.976;8.342;2023-02-21T00:31:17;12.13;;;7.40;;
2850;SDS011;1433;49.976;8.342;2023-02-21T00:34:02;16.47;;;8.90;;
2850;SDS011;1433;49.976;8.342;2023-02-21T00:36:47;12.03;;;9.97;;
2850;SDS011;1433;49.976;8.342;2023-02-21T00:39:32;10.87;;;9.13;;
2850;SDS011;1433;49.976;8.342;2023-02-21T00:42:16;11.10;;;9.27;;
2850;SDS011;1433;49.976;8.342;2023-02-21T00:45:02;18.73;;;11.53;;
2850;SDS011;1433;49.976;8.342;2023-02-21T00:47:48;10.30;;;9.20;;
2850;SDS011;1433;49.976;8.342;2023-02-21T00:50:32;15.17;;;10.60;;
2850;SDS011;1433;49.976;8.342;2023-02-21T00:53:17;12.07;;;9.03;;
2850;SDS011;1433;49.976;8.342;2023-02-21T00:56:03;13.30;;;8.80;;
2850;SDS011;1433;49.976;8.342;2023-02-21T00:58:48;10.57;;;8.60;;
2850;SDS011;1433;49.976;8.342;2023-02-21T01:01:32;8.50;;;6.80;;
2850;SDS011;1433;49.976;8.342;2023-02-21T01:04:17;9.23;;;8.40;;
2850;SDS011;1433;49.976;8.342;2023-02-21T01:07:02;8.97;;;7.90;;
2850;SDS011;1433;49.976;8.342;2023-02-21T01:09:47;9.03;;;8.00;;
2850;SDS011;1433;49.976;8.342;2023-02-21T01:12:32;11.07;;;7.87;;
2850;SDS011;1433;49.976;8.342;2023-02-21T01:15:17;10.17;;;8.00;;
2850;SDS011;1433;49.976;8.342;2023-02-21T01:18:02;9.07;;;7.50;;
2850;SDS011;1433;49.976;8.342;2023-02-21T01:20:47;14.40;;;8.57;;
2850;SDS011;1433;49.976;8.342;2023-02-21T01:23:33;8.60;;;7.73;;
2850;SDS011;1433;49.976;8.342;2023-02-21T01:26:17;10.47;;;8.13;;
2850;SDS011;1433;49.976;8.342;2023-02-21T01:29:02;12.23;;;8.40;;
2850;SDS011;1433;49.976;8.342;2023-02-21T01:31:48;9.10;;;7.37;;
2850;SDS011;1433;49.976;8.342;2023-02-21T01:34:33;11.10;;;7.90;;
2850;SDS011;1433;49.976;8.342;2023-02-21T01:37:18;11.13;;;8.50;;
2850;SDS011;1433;49.976;8.342;2023-02-21T01:40:03;14.63;;;8.17;;
2850;SDS011;1433;49.976;8.342;2023-02-21T01:42:49;12.50;;;8.23;;
2850;SDS011;1433;49.976;8.342;2023-02-21T01:45:42;10.83;;;8.73;;
2850;SDS011;1433;49.976;8.342;2023-02-21T01:48:28;15.80;;;8.20;;
2850;SDS011;1433;49.976;8.342;2023-02-21T01:51:15;8.27;;;7.43;;
2850;SDS011;1433;49.976;8.342;2023-02-21T01:54:02;11.47;;;8.77;;
2850;SDS011;1433;49.976;8.342;2023-02-21T01:56:49;11.67;;;8.67;;
2850;SDS011;1433;49.976;8.342;2023-02-21T01:59:36;11.63;;;8.93;;
2850;SDS011;1433;49.976;8.342;2023-02-21T02:05:13;13.90;;;9.30;;
2850;SDS011;1433;49.976;8.342;2023-02-21T02:07:58;11.50;;;9.23;;
2850;SDS011;1433;49.976;8.342;2023-02-21T02:10:43;12.00;;;8.27;;
2850;SDS011;1433;49.976;8.342;2023-02-21T02:21:36;14.30;;;9.33;;
2850;SDS011;1433;49.976;8.342;2023-02-21T02:35:30;10.97;;;8.00;;
2850;SDS011;1433;49.976;8.342;2023-02-21T02:43:15;11.30;;;8.87;;
2850;SDS011;1433;49.976;8.342;2023-02-21T02:46:16;12.40;;;9.23;;
2850;SDS011;1433;49.976;8.342;2023-02-21T02:48:45;11.07;;;8.70;;
2850;SDS011;1433;49.976;8.342;2023-02-21T02:51:14;9.23;;;7.73;;
2850;SDS011;1433;49.976;8.342;2023-02-21T02:53:42;12.37;;;9.77;;
2850;SDS011;1433;49.976;8.342;2023-02-21T02:56:10;11.17;;;8.17;;
2850;SDS011;1433;49.976;8.342;2023-02-21T02:58:50;12.73;;;9.60;;
2850;SDS011;1433;49.976;8.342;2023-02-21T03:04:32;20.47;;;13.60;;
2850;SDS011;1433;49.976;8.342;2023-02-21T03:07:07;13.30;;;9.63;;
2850;SDS011;1433;49.976;8.342;2023-02-21T03:12:52;10.47;;;8.90;;
2850;SDS011;1433;49.976;8.342;2023-02-21T03:15:51;17.40;;;9.57;;
2850;SDS011;1433;49.976;8.342;2023-02-21T03:21:07;10.87;;;9.80;;
2850;SDS011;1433;49.976;8.342;2023-02-21T03:23:38;11.50;;;8.97;;
2850;SDS011;1433;49.976;8.342;2023-02-21T03:26:07;13.90;;;9.40;;
2850;SDS011;1433;49.976;8.342;2023-02-21T03:28:38;13.77;;;9.27;;
2850;SDS011;1433;49.976;8.342;2023-02-21T03:31:06;13.43;;;9.50;;
2850;SDS011;1433;49.976;8.342;2023-02-21T03:33:34;11.97;;;9.10;;
2850;SDS011;1433;49.976;8.342;2023-02-21T03:36:04;11.60;;;9.83;;
2850;SDS011;1433;49.976;8.342;2023-02-21T03:38:33;17.10;;;11.53;;
2850;SDS011;1433;49.976;8.342;2023-02-21T03:40:59;13.80;;;10.10;;
2850;SDS011;1433;49.976;8.342;2023-02-21T03:43:29;14.93;;;9.37;;
2850;SDS011;1433;49.976;8.342;2023-02-21T03:45:57;13.50;;;10.87;;
2850;SDS011;1433;49.976;8.342;2023-02-21T03:48:23;14.40;;;10.63;;
2850;SDS011;1433;49.976;8.342;2023-02-21T03:50:50;26.10;;;12.63;;
2850;SDS011;1433;49.976;8.342;2023-02-21T03:53:16;17.17;;;10.77;;
2850;SDS011;1433;49.976;8.342;2023-02-21T03:55:43;12.27;;;9.60;;
2850;SDS011;1433;49.976;8.342;2023-02-21T03:58:11;14.27;;;9.43;;
2850;SDS011;1433;49.976;8.342;2023-02-21T04:00:38;11.00;;;9.90;;
2850;SDS011;1433;49.976;8.342;2023-02-21T04:03:04;10.80;;;9.03;;
2850;SDS011;1433;49.976;8.342;2023-02-21T04:05:34;15.70;;;9.27;;
2850;SDS011;1433;49.976;8.342;2023-02-21T04:08:02;15.57;;;9.60;;
2850;SDS011;1433;49.976;8.342;2023-02-21T04:10:28;15.70;;;11.70;;
2850;SDS011;1433;49.976;8.342;2023-02-21T04:12:55;21.83;;;10.57;;
2850;SDS011;1433;49.976;8.342;2023-02-21T04:15:21;11.73;;;7.97;;
2850;SDS011;1433;49.976;8.342;2023-02-21T04:17:47;19.30;;;9.00;;
2850;SDS011;1433;49.976;8.342;2023-02-21T04:20:14;9.90;;;8.90;;
2850;SDS011;1433;49.976;8.342;2023-02-21T04:22:42;14.40;;;10.70;;
2850;SDS011;1433;49.976;8.342;2023-02-21T04:25:08;12.37;;;9.63;;
2850;SDS011;1433;49.976;8.342;2023-02-21T04:27:39;15.23;;;11.20;;
2850;SDS011;1433;49.976;8.342;2023-02-21T04:30:06;10.30;;;8.93;;
2850;SDS011;1433;49.976;8.342;2023-02-21T04:32:33;14.13;;;10.90;;
2850;SDS011;1433;49.976;8.342;2023-02-21T04:35:01;11.73;;;9.30;;
2850;SDS011;1433;49.976;8.342;2023-02-21T04:37:28;9.87;;;8.93;;
2850;SDS011;1433;49.976;8.342;2023-02-21T04:39:54;16.00;;;10.23;;
2850;SDS011;1433;49.976;8.342;2023-02-21T04:42:20;13.20;;;9.60;;
2850;SDS011;1433;49.976;8.342;2023-02-21T04:44:47;16.33;;;10.03;;
2850;SDS011;1433;49.976;8.342;2023-02-21T04:47:13;13.63;;;8.90;;
2850;SDS011;1433;49.976;8.342;2023-02-21T04:49:39;14.63;;;10.53;;
2850;SDS011;1433;49.976;8.342;2023-02-21T04:52:05;12.00;;;10.60;;
2850;SDS011;1433;49.976;8.342;2023-02-21T04:54:31;12.17;;;9.93;;
2850;SDS011;1433;49.976;8.342;2023-02-21T04:56:57;12.80;;;10.80;;
2850;SDS011;1433;49.976;8.342;2023-02-21T04:59:23;15.47;;;9.57;;
2850;SDS011;1433;49.976;8.342;2023-02-21T05:01:50;14.77;;;10.80;;
2850;SDS011;1433;49.976;8.342;2023-02-21T05:04:17;12.30;;;9.80;;
2850;SDS011;1433;49.976;8.342;2023-02-21T05:06:43;23.00;;;18.67;;
2850;SDS011;1433;49.976;8.342;2023-02-21T05:09:09;17.30;;;12.20;;
2850;SDS011;1433;49.976;8.342;2023-02-21T05:11:35;15.83;;;11.30;;
2850;SDS011;1433;49.976;8.342;2023-02-21T05:14:01;14.90;;;10.73;;
2850;SDS011;1433;49.976;8.342;2023-02-21T05:16:28;13.57;;;11.87;;
2850;SDS011;1433;49.976;8.342;2023-02-21T05:18:54;16.30;;;11.90;;
2850;SDS011;1433;49.976;8.342;2023-02-21T05:21:33;13.53;;;10.00;;
2850;SDS011;1433;49.976;8.342;2023-02-21T05:24:40;13.93;;;10.27;;
2850;SDS011;1433;49.976;8.342;2023-02-21T05:27:16;14.17;;;11.53;;
2850;SDS011;1433;49.976;8.342;2023-02-21T05:29:51;10.40;;;8.90;;
2850;SDS011;1433;49.976;8.342;2023-02-21T05:32:21;10.57;;;9.30;;
2850;SDS011;1433;49.976;8.342;2023-02-21T05:34:46;16.77;;;11.60;;
2850;SDS011;1433;49.976;8.342;2023-02-21T05:37:13;14.73;;;9.47;;
2850;SDS011;1433;49.976;8.342;2023-02-21T05:39:40;13.13;;;9.80;;
2850;SDS011;1433;49.976;8.342;2023-02-21T05:42:06;15.70;;;10.67;;
2850;SDS011;1433;49.976;8.342;2023-02-21T05:44:32;12.47;;;10.17;;
2850;SDS011;1433;49.976;8.342;2023-02-21T05:46:59;17.73;;;12.93;;
2850;SDS011;1433;49.976;8.342;2023-02-21T05:49:27;17.33;;;12.73;;
2850;SDS011;1433;49.976;8.342;2023-02-21T05:51:53;15.87;;;12.47;;
2850;SDS011;1433;49.976;8.342;2023-02-21T05:54:19;17.20;;;11.50;;
2850;SDS011;1433;49.976;8.342;2023-02-21T05:56:49;18.87;;;11.63;;
2850;SDS011;1433;49.976;8.342;2023-02-21T05:59:16;12.57;;;11.27;;
2850;SDS011;1433;49.976;8.342;2023-02-21T06:01:44;13.77;;;11.37;;
2850;SDS011;1433;49.976;8.342;2023-02-21T06:04:11;17.73;;;12.80;;
2850;SDS011;1433;49.976;8.342;2023-02-21T06:06:40;16.23;;;11.60;;
2850;SDS011;1433;49.976;8.342;2023-02-21T06:09:08;18.77;;;12.70;;
2850;SDS011;1433;49.976;8.342;2023-02-21T06:11:35;19.57;;;11.50;;
2850;SDS011;1433;49.976;8.342;2023-02-21T06:14:03;18.43;;;12.27;;
2850;SDS011;1433;49.976;8.342;2023-02-21T06:16:32;20.57;;;12.60;;
2850;SDS011;1433;49.976;8.342;2023-02-21T06:19:01;18.80;;;12.00;;
2850;SDS011;1433;49.976;8.342;2023-02-21T06:21:28;19.73;;;12.50;;
2850;SDS011;1433;49.976;8.342;2023-02-21T06:23:54;16.30;;;13.10;;
2850;SDS011;1433;49.976;8.342;2023-02-21T06:26:21;20.57;;;15.80;;
2850;SDS011;1433;49.976;8.342;2023-02-21T06:28:48;22.70;;;18.03;;
2850;SDS011;1433;49.976;8.342;2023-02-21T06:31:15;19.83;;;14.97;;
2850;SDS011;1433;49.976;8.342;2023-02-21T06:33:43;27.90;;;15.60;;
2850;SDS011;1433;49.976;8.342;2023-02-21T06:36:11;21.80;;;14.33;;
2850;SDS011;1433;49.976;8.342;2023-02-21T06:38:39;15.00;;;13.30;;
2850;SDS011;1433;49.976;8.342;2023-02-21T06:41:06;14.30;;;12.13;;
2850;SDS011;1433;49.976;8.342;2023-02-21T06:43:33;18.23;;;13.00;;
2850;SDS011;1433;49.976;8.342;2023-02-21T06:46:03;20.47;;;13.77;;
2850;SDS011;1433;49.976;8.342;2023-02-21T06:48:29;15.17;;;12.80;;
2850;SDS011;1433;49.976;8.342;2023-02-21T06:50:56;19.00;;;13.43;;
2850;SDS011;1433;49.976;8.342;2023-02-21T06:53:22;17.67;;;14.10;;
2850;SDS011;1433;49.976;8.342;2023-02-21T06:55:48;21.50;;;12.30;;
2850;SDS011;1433;49.976;8.342;2023-02-21T06:58:14;14.90;;;12.97;;
2850;SDS011;1433;49.976;8.342;2023-02-21T07:00:40;26.83;;;18.63;;
2850;SDS011;1433;49.976;8.342;2023-02-21T07:03:06;20.20;;;15.90;;
2850;SDS011;1433;49.976;8.342;2023-02-21T07:05:32;20.90;;;15.70;;
2850;SDS011;1433;49.976;8.342;2023-02-21T07:08:00;25.23;;;15.90;;
2850;SDS011;1433;49.976;8.342;2023-02-21T07:10:27;20.67;;;17.23;;
2850;SDS011;1433;49.976;8.342;2023-02-21T07:12:54;24.03;;;14.90;;
2850;SDS011;1433;49.976;8.342;2023-02-21T07:15:20;23.60;;;17.70;;
2850;SDS011;1433;49.976;8.342;2023-02-21T07:17:47;24.17;;;18.20;;
2850;SDS011;1433;49.976;8.342;2023-02-21T07:20:13;21.63;;;16.17;;
2850;SDS011;1433;49.976;8.342;2023-02-21T07:22:39;21.23;;;17.20;;
2850;SDS011;1433;49.976;8.342;2023-02-21T07:25:05;19.67;;;14.07;;
2850;SDS011;1433;49.976;8.342;2023-02-21T07:27:31;17.00;;;12.70;;
2850;SDS011;1433;49.976;8.342;2023-02-21T07:29:57;21.60;;;14.53;;
2850;SDS011;1433;49.976;8.342;2023-02-21T07:32:24;19.57;;;15.33;;
2850;SDS011;1433;49.976;8.342;2023-02-21T07:34:50;18.27;;;15.13;;
2850;SDS011;1433;49.976;8.342;2023-02-21T07:37:16;15.23;;;13.70;;
2850;SDS011;1433;49.976;8.342;2023-02-21T07:39:42;16.07;;;13.07;;
2850;SDS011;1433;49.976;8.342;2023-02-21T07:42:08;15.83;;;13.57;;
2850;SDS011;1433;49.976;8.342;2023-02-21T07:44:34;17.50;;;13.20;;
2850;SDS011;1433;49.976;8.342;2023-02-21T07:47:00;15.30;;;13.43;;
2850;SDS011;1433;49.976;8.342;2023-02-21T07:49:27;15.70;;;13.50;;
2850;SDS011;1433;49.976;8.342;2023-02-21T07:51:53;20.23;;;13.97;;
2850;SDS011;1433;49.976;8.342;2023-02-21T07:54:19;20.50;;;14.10;;
2850;SDS011;1433;49.976;8.342;2023-02-21T07:56:46;17.03;;;14.07;;
2850;SDS011;1433;49.976;8.342;2023-02-21T07:59:13;18.23;;;15.53;;
2850;SDS011;1433;49.976;8.342;2023-02-21T08:01:40;19.93;;;14.77;;
2850;SDS011;1433;49.976;8.342;2023-02-21T08:04:07;24.87;;;15.70;;
2850;SDS011;1433;49.976;8.342;2023-02-21T08:06:33;24.07;;;13.53;;
2850;SDS011;1433;49.976;8.342;2023-02-21T08:09:00;18.10;;;13.33;;
2850;SDS011;1433;49.976;8.342;2023-02-21T08:11:26;19.40;;;14.67;;
2850;SDS011;1433;49.976;8.342;2023-02-21T08:13:52;11.90;;;10.70;;
2850;SDS011;1433;49.976;8.342;2023-02-21T08:16:18;24.27;;;14.63;;
2850;SDS011;1433;49.976;8.342;2023-02-21T08:18:48;15.67;;;13.60;;
2850;SDS011;1433;49.976;8.342;2023-02-21T08:21:16;16.80;;;13.27;;
2850;SDS011;1433;49.976;8.342;2023-02-21T08:23:42;17.87;;;13.57;;
2850;SDS011;1433;49.976;8.342;2023-02-21T08:26:08;17.70;;;14.70;;
2850;SDS011;1433;49.976;8.342;2023-02-21T08:28:34;15.00;;;13.50;;
2850;SDS011;1433;49.976;8.342;2023-02-21T08:31:02;16.80;;;13.63;;
2850;SDS011;1433;49.976;8.342;2023-02-21T08:33:28;22.73;;;14.17;;
2850;SDS011;1433;49.976;8.342;2023-02-21T08:35:54;19.43;;;14.50;;
2850;SDS011;1433;49.976;8.342;2023-02-21T08:38:20;15.57;;;13.97;;
2850;SDS011;1433;49.976;8.342;2023-02-21T08:40:46;16.40;;;14.80;;
2850;SDS011;1433;49.976;8.342;2023-02-21T08:43:13;17.63;;;15.73;;
2850;SDS011;1433;49.976;8.342;2023-02-21T08:45:39;15.77;;;14.13;;
2850;SDS011;1433;49.976;8.342;2023-02-21T08:48:05;16.93;;;13.53;;
2850;SDS011;1433;49.976;8.342;2023-02-21T08:50:31;16.37;;;14.77;;
2850;SDS011;1433;49.976;8.342;2023-02-21T08:52:58;16.20;;;14.70;;
2850;SDS011;1433;49.976;8.342;2023-02-21T08:55:24;16.77;;;14.60;;
2850;SDS011;1433;49.976;8.342;2023-02-21T08:57:51;18.17;;;14.70;;
2850;SDS011;1433;49.976;8.342;2023-02-21T09:00:19;17.17;;;15.47;;
2850;SDS011;1433;49.976;8.342;2023-02-21T09:02:51;17.63;;;14.17;;
2850;SDS011;1433;49.976;8.342;2023-02-21T09:05:22;16.50;;;14.80;;
2850;SDS011;1433;49.976;8.342;2023-02-21T09:07:51;16.83;;;14.97;;
2850;SDS011;1433;49.976;8.342;2023-02-21T09:10:20;15.80;;;13.97;;
2850;SDS011;1433;49.976;8.342;2023-02-21T09:12:46;17.83;;;15.23;;
2850;SDS011;1433;49.976;8.342;2023-02-21T09:15:13;15.67;;;14.27;;
2850;SDS011;1433;49.976;8.342;2023-02-21T09:17:40;18.43;;;15.03;;
2850;SDS011;1433;49.976;8.342;2023-02-21T09:20:07;19.30;;;14.17;;
2850;SDS011;1433;49.976;8.342;2023-02-21T09:22:35;17.77;;;15.53;;
2850;SDS011;1433;49.976;8.342;2023-02-21T09:25:02;17.60;;;15.80;;
2850;SDS011;1433;49.976;8.342;2023-02-21T09:27:29;17.87;;;14.13;;
2850;SDS011;1433;49.976;8.342;2023-02-21T09:30:12;18.17;;;16.37;;
2850;SDS011;1433;49.976;8.342;2023-02-21T09:32:34;16.60;;;15.00;;
2850;SDS011;1433;49.976;8.342;2023-02-21T09:35:01;21.00;;;14.97;;
2850;SDS011;1433;49.976;8.342;2023-02-21T09:37:28;17.73;;;15.40;;
2850;SDS011;1433;49.976;8.342;2023-02-21T09:39:55;19.20;;;15.83;;
2850;SDS011;1433;49.976;8.342;2023-02-21T09:42:22;17.67;;;15.83;;
2850;SDS011;1433;49.976;8.342;2023-02-21T09:44:50;17.03;;;14.83;;
2850;SDS011;1433;49.976;8.342;2023-02-21T09:47:21;16.40;;;14.60;;
2850;SDS011;1433;49.976;8.342;2023-02-21T09:49:49;17.57;;;15.80;;
2850;SDS011;1433;49.976;8.342;2023-02-21T09:52:21;20.90;;;16.10;;
2850;SDS011;1433;49.976;8.342;2023-02-21T09:54:51;20.33;;;16.20;;
2850;SDS011;1433;49.976;8.342;2023-02-21T09:57:19;20.13;;;14.80;;
2850;SDS011;1433;49.976;8.342;2023-02-21T09:59:47;18.77;;;16.80;;
2850;SDS011;1433;49.976;8.342;2023-02-21T10:02:25;18.10;;;15.60;;
2850;SDS011;1433;49.976;8.342;2023-02-21T10:07:35;18.83;;;15.57;;
2850;SDS011;1433;49.976;8.342;2023-02-21T10:10:06;19.13;;;15.20;;
2850;SDS011;1433;49.976;8.342;2023-02-21T10:12:36;16.67;;;14.83;;
2850;SDS011;1433;49.976;8.342;2023-02-21T10:17:45;16.50;;;14.80;;
2850;SDS011;1433;49.976;8.342;2023-02-21T10:20:22;19.03;;;15.70;;
2850;SDS011;1433;49.976;8.342;2023-02-21T10:22:49;17.17;;;15.37;;
2850;SDS011;1433;49.976;8.342;2023-02-21T10:25:28;15.77;;;14.20;;
2850;SDS011;1433;49.976;8.342;2023-02-21T10:27:57;16.80;;;14.90;;
2850;SDS011;1433;49.976;8.342;2023-02-21T10:30:35;21.10;;;15.97;;
2850;SDS011;1433;49.976;8.342;2023-02-21T10:33:03;16.87;;;15.03;;
2850;SDS011;1433;49.976;8.342;2023-02-21T10:35:36;16.40;;;14.83;;
2850;SDS011;1433;49.976;8.342;2023-02-21T10:38:01;17.50;;;15.60;;
2850;SDS011;1433;49.976;8.342;2023-02-21T10:45:52;18.73;;;16.50;;
2850;SDS011;1433;49.976;8.342;2023-02-21T10:48:21;17.63;;;15.83;;
2850;SDS011;1433;49.976;8.342;2023-02-21T10:53:36;20.20;;;15.53;;
2850;SDS011;1433;49.976;8.342;2023-02-21T10:58:49;16.37;;;14.67;;
2850;SDS011;1433;49.976;8.342;2023-02-21T11:03:59;16.33;;;14.67;;
2850;SDS011;1433;49.976;8.342;2023-02-21T11:06:35;16.53;;;14.80;;
2850;SDS011;1433;49.976;8.342;2023-02-21T11:09:22;16.50;;;14.80;;
2850;SDS011;1433;49.976;8.342;2023-02-21T11:11:51;21.60;;;16.30;;
2850;SDS011;1433;49.976;8.342;2023-02-21T11:14:37;16.57;;;14.77;;
2850;SDS011;1433;49.976;8.342;2023-02-21T11:22:23;16.30;;;14.57;;
2850;SDS011;1433;49.976;8.342;2023-02-21T11:24:54;17.10;;;15.37;;
2850;SDS011;1433;49.976;8.342;2023-02-21T11:27:22;16.50;;;14.63;;
2850;SDS011;1433;49.976;8.342;2023-02-21T11:29:49;15.20;;;13.63;;
2850;SDS011;1433;49.976;8.342;2023-02-21T11:32:33;17.70;;;14.77;;
2850;SDS011;1433;49.976;8.342;2023-02-21T11:35:03;13.63;;;12.40;;
2850;SDS011;1433;49.976;8.342;2023-02-21T11:37:45;14.93;;;13.43;;
2850;SDS011;1433;49.976;8.342;2023-02-21T11:40:05;14.20;;;12.90;;
2850;SDS011;1433;49.976;8.342;2023-02-21T11:42:34;17.47;;;15.77;;
2850;SDS011;1433;49.976;8.342;2023-02-21T11:47:58;17.40;;;14.73;;
2850;SDS011;1433;49.976;8.342;2023-02-21T11:50:33;16.93;;;12.37;;
2850;SDS011;1433;49.976;8.342;2023-02-21T11:53:30;14.63;;;12.97;;
2850;SDS011;1433;49.976;8.342;2023-02-21T11:58:43;13.87;;;12.47;;
2850;SDS011;1433;49.976;8.342;2023-02-21T12:01:27;14.07;;;12.70;;
2850;SDS011;1433;49.976;8.342;2023-02-21T12:04:02;15.30;;;11.33;;
2850;SDS011;1433;49.976;8.342;2023-02-21T12:06:55;14.10;;;12.70;;
2850;SDS011;1433;49.976;8.342;2023-02-21T12:09:34;13.13;;;11.80;;
2850;SDS011;1433;49.976;8.342;2023-02-21T12:14:50;13.73;;;12.10;;
2850;SDS011;1433;49.976;8.342;2023-02-21T12:25:35;14.73;;;13.10;;
2850;SDS011;1433;49.976;8.342;2023-02-21T12:28:24;13.83;;;12.43;;
2850;SDS011;1433;49.976;8.342;2023-02-21T12:33:49;15.00;;;13.40;;
2850;SDS011;1433;49.976;8.342;2023-02-21T12:42:15;12.40;;;11.07;;
2850;SDS011;1433;49.976;8.342;2023-02-21T12:47:56;11.93;;;10.17;;
2850;SDS011;1433;49.976;8.342;2023-02-21T12:50:21;11.87;;;10.80;;
2850;SDS011;1433;49.976;8.342;2023-02-21T12:53:09;11.30;;;10.30;;
2850;SDS011;1433;49.976;8.342;2023-02-21T12:55:40;11.77;;;9.60;;
2850;SDS011;1433;49.976;8.342;2023-02-21T13:01:01;13.17;;;11.07;;
2850;SDS011;1433;49.976;8.342;2023-02-21T13:06:33;12.37;;;11.17;;
2850;SDS011;1433;49.976;8.342;2023-02-21T13:11:45;14.20;;;10.70;;
2850;SDS011;1433;49.976;8.342;2023-02-21T13:14:24;14.20;;;12.87;;
2850;SDS011;1433;49.976;8.342;2023-02-21T13:16:58;13.43;;;12.03;;
2850;SDS011;1433;49.976;8.342;2023-02-21T13:19:24;11.40;;;10.37;;
2850;SDS011;1433;49.976;8.342;2023-02-21T13:28:08;14.43;;;12.23;;
2850;SDS011;1433;49.976;8.342;2023-02-21T13:30:37;12.33;;;11.13;;
2850;SDS011;1433;49.976;8.342;2023-02-21T13:33:25;13.20;;;11.77;;
2850;SDS011;1433;49.976;8.342;2023-02-21T13:35:49;11.70;;;10.60;;
2850;SDS011;1433;49.976;8.342;2023-02-21T13:38:17;14.77;;;12.97;;
2850;SDS011;1433;49.976;8.342;2023-02-21T13:40:48;14.10;;;12.70;;
2850;SDS011;1433;49.976;8.342;2023-02-21T13:43:22;12.63;;;11.43;;
2850;SDS011;1433;49.976;8.342;2023-02-21T13:45:53;14.97;;;12.73;;
2850;SDS011;1433;49.976;8.342;2023-02-21T13:48:24;13.00;;;11.77;;
2850;SDS011;1433;49.976;8.342;2023-02-21T13:50:56;13.97;;;12.47;;
2850;SDS011;1433;49.976;8.342;2023-02-21T13:53:31;12.63;;;11.60;;
2850;SDS011;1433;49.976;8.342;2023-02-21T13:58:36;13.07;;;11.27;;
2850;SDS011;1433;49.976;8.342;2023-02-21T14:01:22;15.67;;;14.07;;
2850;SDS011;1433;49.976;8.342;2023-02-21T14:03:50;13.33;;;12.00;;
2850;SDS011;1433;49.976;8.342;2023-02-21T14:06:32;12.17;;;10.97;;
2850;SDS011;1433;49.976;8.342;2023-02-21T14:09:14;16.50;;;12.50;;
2850;SDS011;1433;49.976;8.342;2023-02-21T14:11:43;13.83;;;12.10;;
2850;SDS011;1433;49.976;8.342;2023-02-21T14:14:29;12.97;;;11.67;;
2850;SDS011;1433;49.976;8.342;2023-02-21T14:17:03;13.13;;;11.97;;
2850;SDS011;1433;49.976;8.342;2023-02-21T14:22:20;17.60;;;12.63;;
2850;SDS011;1433;49.976;8.342;2023-02-21T14:25:14;11.67;;;10.47;;
2850;SDS011;1433;49.976;8.342;2023-02-21T14:27:39;11.30;;;10.13;;
2850;SDS011;1433;49.976;8.342;2023-02-21T14:32:46;13.90;;;12.20;;
2850;SDS011;1433;49.976;8.342;2023-02-21T14:38:19;14.13;;;10.60;;
2850;SDS011;1433;49.976;8.342;2023-02-21T14:43:51;13.47;;;12.17;;
2850;SDS011;1433;49.976;8.342;2023-02-21T15:01:01;16.30;;;12.97;;
2850;SDS011;1433;49.976;8.342;2023-02-21T15:03:47;14.30;;;12.73;;
2850;SDS011;1433;49.976;8.342;2023-02-21T15:06:19;15.37;;;13.20;;
2850;SDS011;1433;49.976;8.342;2023-02-21T15:08:48;15.10;;;12.47;;
2850;SDS011;1433;49.976;8.342;2023-02-21T15:11:33;15.37;;;12.47;;
2850;SDS011;1433;49.976;8.342;2023-02-21T15:14:11;16.00;;;14.43;;
2850;SDS011;1433;49.976;8.342;2023-02-21T15:16:51;19.43;;;13.83;;
2850;SDS011;1433;49.976;8.342;2023-02-21T15:19:32;16.03;;;14.40;;
2850;SDS011;1433;49.976;8.342;2023-02-21T15:24:38;15.80;;;12.90;;
2850;SDS011;1433;49.976;8.342;2023-02-21T15:27:08;19.53;;;13.70;;
2850;SDS011;1433;49.976;8.342;2023-02-21T15:29:38;17.20;;;13.97;;
2850;SDS011;1433;49.976;8.342;2023-02-21T15:32:06;17.47;;;15.00;;
2850;SDS011;1433;49.976;8.342;2023-02-21T15:37:16;14.23;;;12.87;;
2850;SDS011;1433;49.976;8.342;2023-02-21T15:42:38;17.07;;;13.97;;
2850;SDS011;1433;49.976;8.342;2023-02-21T15:45:07;16.67;;;13.60;;
2850;SDS011;1433;49.976;8.342;2023-02-21T15:47:36;17.50;;;13.70;;
2850;SDS011;1433;49.976;8.342;2023-02-21T15:50:04;15.23;;;13.47;;
2850;SDS011;1433;49.976;8.342;2023-02-21T15:52:39;21.87;;;13.33;;
2850;SDS011;1433;49.976;8.342;2023-02-21T16:11:47;20.40;;;15.10;;
2850;SDS011;1433;49.976;8.342;2023-02-21T16:14:22;17.60;;;15.70;;
2850;SDS011;1433;49.976;8.342;2023-02-21T16:19:39;15.93;;;14.30;;
2850;SDS011;1433;49.976;8.342;2023-02-21T16:27:38;19.30;;;13.80;;
2850;SDS011;1433;49.976;8.342;2023-02-21T16:30:06;14.23;;;12.80;;
2850;SDS011;1433;49.976;8.342;2023-02-21T16:32:35;15.10;;;13.43;;
2850;SDS011;1433;49.976;8.342;2023-02-21T16:35:01;21.93;;;14.40;;
2850;SDS011;1433;49.976;8.342;2023-02-21T16:37:28;15.90;;;13.53;;
2850;SDS011;1433;49.976;8.342;2023-02-21T16:39:54;20.13;;;15.30;;
2850;SDS011;1433;49.976;8.342;2023-02-21T16:42:20;16.50;;;13.93;;
2850;SDS011;1433;49.976;8.342;2023-02-21T16:45:01;15.83;;;14.03;;
2850;SDS011;1433;49.976;8.342;2023-02-21T16:47:28;16.33;;;14.30;;
2850;SDS011;1433;49.976;8.342;2023-02-21T16:49:54;20.10;;;16.00;;
2850;SDS011;1433;49.976;8.342;2023-02-21T16:52:20;20.70;;;13.23;;
2850;SDS011;1433;49.976;8.342;2023-02-21T16:54:46;16.47;;;14.73;;
2850;SDS011;1433;49.976;8.342;2023-02-21T16:57:12;16.73;;;14.37;;
2850;SDS011;1433;49.976;8.342;2023-02-21T16:59:38;18.47;;;14.03;;
2850;SDS011;1433;49.976;8.342;2023-02-21T17:02:04;35.67;;;16.93;;
2850;SDS011;1433;49.976;8.342;2023-02-21T17:04:31;17.80;;;14.77;;
2850;SDS011;1433;49.976;8.342;2023-02-21T17:07:03;31.00;;;14.87;;
2850;SDS011;1433;49.976;8.342;2023-02-21T17:09:28;17.33;;;14.03;;
2850;SDS011;1433;49.976;8.342;2023-02-21T17:11:58;14.47;;;12.37;;
2850;SDS011;1433;49.976;8.342;2023-02-21T17:14:25;19.23;;;13.70;;
2850;SDS011;1433;49.976;8.342;2023-02-21T17:16:51;23.33;;;14.20;;
2850;SDS011;1433;49.976;8.342;2023-02-21T17:19:18;18.53;;;15.33;;
2850;SDS011;1433;49.976;8.342;2023-02-21T17:21:46;15.90;;;13.90;;
2850;SDS011;1433;49.976;8.342;2023-02-21T17:24:13;19.43;;;15.37;;
2850;SDS011;1433;49.976;8.342;2023-02-21T17:26:40;19.73;;;14.37;;
2850;SDS011;1433;49.976;8.342;2023-02-21T17:29:06;18.70;;;16.07;;
2850;SDS011;1433;49.976;8.342;2023-02-21T17:31:34;23.80;;;16.63;;
2850;SDS011;1433;49.976;8.342;2023-02-21T17:34:00;16.93;;;15.23;;
2850;SDS011;1433;49.976;8.342;2023-02-21T17:36:27;22.87;;;16.73;;
2850;SDS011;1433;49.976;8.342;2023-02-21T17:38:53;18.90;;;15.90;;
2850;SDS011;1433;49.976;8.342;2023-02-21T17:41:20;19.50;;;17.40;;
2850;SDS011;1433;49.976;8.342;2023-02-21T17:43:46;27.97;;;17.70;;
2850;SDS011;1433;49.976;8.342;2023-02-21T17:46:13;17.20;;;15.07;;
2850;SDS011;1433;49.976;8.342;2023-02-21T17:48:40;21.20;;;18.30;;
2850;SDS011;1433;49.976;8.342;2023-02-21T17:51:08;21.37;;;17.43;;
2850;SDS011;1433;49.976;8.342;2023-02-21T17:53:36;27.67;;;16.83;;
2850;SDS011;1433;49.976;8.342;2023-02-21T17:56:02;21.13;;;15.90;;
2850;SDS011;1433;49.976;8.342;2023-02-21T17:58:29;20.20;;;16.27;;
2850;SDS011;1433;49.976;8.342;2023-02-21T18:00:55;21.37;;;17.83;;
2850;SDS011;1433;49.976;8.342;2023-02-21T18:03:21;20.13;;;15.20;;